createdAt,value
2017-11-20T00:02:07.936Z,4.43
2017-11-20T00:04:37.220Z,5.00
2017-11-20T00:07:07.248Z,4.90
2017-11-20T00:09:36.483Z,7.43
2017-11-20T00:12:06.035Z,5.97
2017-11-20T00:14:35.275Z,6.17
2017-11-20T00:17:04.547Z,5.43
2017-11-20T00:19:34.578Z,4.57
2017-11-20T00:22:03.800Z,4.30
2017-11-20T00:24:33.055Z,5.30
2017-11-20T00:27:03.085Z,4.07
2017-11-20T00:29:32.483Z,4.63
2017-11-20T00:32:01.939Z,5.00
2017-11-20T00:34:31.305Z,4.73
2017-11-20T00:37:00.618Z,5.13
2017-11-20T00:39:29.858Z,4.90
2017-11-20T00:41:59.184Z,4.63
2017-11-20T00:44:29.306Z,4.90
2017-11-20T00:46:58.803Z,4.87
2017-11-20T00:49:28.733Z,3.93
2017-11-20T00:51:58.250Z,5.00
2017-11-20T00:54:27.735Z,4.43
2017-11-20T00:56:57.042Z,4.50
2017-11-20T00:59:27.373Z,4.50
2017-11-20T01:01:57.386Z,3.87
2017-11-20T01:04:26.795Z,4.77
2017-11-20T01:06:56.830Z,4.83
2017-11-20T01:09:26.162Z,4.93
2017-11-20T01:11:55.406Z,4.00
2017-11-20T01:14:24.654Z,4.30
2017-11-20T01:16:53.897Z,3.90
2017-11-20T01:19:23.420Z,4.67
2017-11-20T01:21:52.647Z,3.60
2017-11-20T01:24:22.214Z,5.17
2017-11-20T01:26:51.599Z,4.10
2017-11-20T01:29:20.858Z,3.80
2017-11-20T01:31:50.087Z,3.53
2017-11-20T01:34:19.334Z,4.43
2017-11-20T01:36:48.773Z,3.70
2017-11-20T01:39:17.999Z,4.10
2017-11-20T01:41:47.331Z,4.50
2017-11-20T01:44:16.574Z,4.40
2017-11-20T01:46:45.839Z,4.60
2017-11-20T01:49:15.183Z,4.47
2017-11-20T01:51:44.467Z,3.53
2017-11-20T01:54:13.831Z,3.30
2017-11-20T01:56:43.342Z,4.00
2017-11-20T01:59:12.648Z,3.63
2017-11-20T02:01:41.898Z,3.90
2017-11-20T02:04:11.131Z,3.80
2017-11-20T02:06:40.389Z,3.93
2017-11-20T02:09:09.851Z,4.40
2017-11-20T02:11:39.971Z,3.30
2017-11-20T02:14:09.265Z,4.43
2017-11-20T02:16:38.566Z,3.17
2017-11-20T02:19:07.875Z,4.13
2017-11-20T02:21:37.139Z,4.23
2017-11-20T02:24:06.683Z,3.97
2017-11-20T02:26:36.025Z,3.20
2017-11-20T02:29:05.295Z,3.50
2017-11-20T02:31:35.325Z,4.27
2017-11-20T02:34:04.595Z,4.03
2017-11-20T02:36:34.103Z,3.33
2017-11-20T02:39:03.349Z,4.00
2017-11-20T02:41:37.458Z,3.43
2017-11-20T02:44:06.713Z,3.23
2017-11-20T02:46:35.970Z,3.33
2017-11-20T02:49:05.327Z,3.30
2017-11-20T02:51:35.350Z,3.77
2017-11-20T02:54:04.743Z,3.90
2017-11-20T02:56:34.015Z,3.40
2017-11-20T02:59:03.272Z,3.13
2017-11-20T03:01:32.654Z,4.00
2017-11-20T03:04:02.131Z,3.40
2017-11-20T03:06:31.376Z,3.40
2017-11-20T03:09:00.644Z,3.10
2017-11-20T03:11:29.879Z,3.17
2017-11-20T03:13:59.992Z,3.27
2017-11-20T03:16:29.287Z,3.30
2017-11-20T03:18:59.423Z,3.77
2017-11-20T03:21:28.843Z,2.87
2017-11-20T03:23:58.114Z,3.03
2017-11-20T03:26:27.513Z,2.63
2017-11-20T03:28:56.748Z,2.87
2017-11-20T03:31:26.003Z,3.20
2017-11-20T03:33:56.745Z,4.00
2017-11-20T03:36:27.600Z,3.10
2017-11-20T03:38:57.605Z,2.83
2017-11-20T03:41:26.843Z,4.10
2017-11-20T03:43:56.202Z,4.10
2017-11-20T03:46:25.459Z,3.10
2017-11-20T03:48:54.888Z,3.40
2017-11-20T03:51:24.275Z,3.90
2017-11-20T03:53:53.534Z,2.93
2017-11-20T03:56:23.554Z,3.47
2017-11-20T03:58:52.815Z,3.27
2017-11-20T04:01:22.055Z,4.20
2017-11-20T04:03:52.113Z,2.70
2017-11-20T04:06:21.471Z,3.07
2017-11-20T04:08:50.875Z,3.73
2017-11-20T04:11:20.132Z,3.40
2017-11-20T04:13:49.556Z,3.00
2017-11-20T04:16:19.519Z,3.67
2017-11-20T04:18:48.782Z,3.40
2017-11-20T04:21:18.811Z,3.10
2017-11-20T04:23:48.813Z,3.00
2017-11-20T04:26:18.042Z,3.20
2017-11-20T04:28:47.301Z,3.43
2017-11-20T04:31:16.610Z,3.83
2017-11-20T04:33:45.888Z,4.20
2017-11-20T04:36:15.119Z,4.47
2017-11-20T04:38:44.343Z,5.23
2017-11-20T04:41:13.587Z,3.93
2017-11-20T04:43:42.827Z,3.50
2017-11-20T04:46:12.222Z,3.70
2017-11-20T04:48:41.524Z,3.80
2017-11-20T04:51:10.775Z,4.57
2017-11-20T04:53:40.010Z,3.13
2017-11-20T04:56:09.278Z,4.03
2017-11-20T04:58:38.528Z,3.93
2017-11-20T05:01:08.552Z,3.10
2017-11-20T05:03:37.954Z,3.83
2017-11-20T05:06:07.174Z,4.70
2017-11-20T05:08:36.436Z,4.23
2017-11-20T05:11:05.695Z,4.53
2017-11-20T05:13:35.636Z,3.20
2017-11-20T05:16:04.881Z,3.70
2017-11-20T05:18:34.142Z,4.73
2017-11-20T05:21:03.385Z,4.53
2017-11-20T05:23:33.691Z,4.10
2017-11-20T05:26:02.981Z,3.77
2017-11-20T05:28:32.295Z,4.00
2017-11-20T05:31:01.591Z,3.73
2017-11-20T05:33:31.091Z,3.60
2017-11-20T05:36:00.398Z,4.53
2017-11-20T05:38:30.407Z,4.27
2017-11-20T05:40:59.827Z,4.00
2017-11-20T05:43:29.961Z,4.00
2017-11-20T05:46:00.037Z,4.10
2017-11-20T05:48:29.273Z,4.03
2017-11-20T05:50:58.666Z,5.20
2017-11-20T05:53:28.150Z,3.93
2017-11-20T05:55:57.392Z,4.17
2017-11-20T05:58:26.703Z,5.13
2017-11-20T06:00:56.829Z,4.57
2017-11-20T06:03:26.112Z,3.97
2017-11-20T06:05:56.225Z,3.43
2017-11-20T06:08:25.497Z,4.20
2017-11-20T06:10:54.767Z,4.40
2017-11-20T06:13:24.040Z,4.00
2017-11-20T06:15:53.283Z,3.93
2017-11-20T06:18:22.566Z,3.67
2017-11-20T06:20:51.822Z,3.83
2017-11-20T06:23:21.068Z,4.30
2017-11-20T06:25:50.306Z,3.43
2017-11-20T06:28:19.574Z,3.70
2017-11-20T06:30:48.805Z,4.10
2017-11-20T06:33:18.255Z,3.50
2017-11-20T06:35:47.598Z,4.40
2017-11-20T06:38:16.870Z,4.47
2017-11-20T06:40:46.090Z,3.17
2017-11-20T06:43:15.922Z,4.10
2017-11-20T06:45:45.148Z,2.90
2017-11-20T06:48:14.503Z,3.73
2017-11-20T06:50:43.735Z,4.20
2017-11-20T06:53:12.987Z,3.10
2017-11-20T06:55:42.242Z,3.47
2017-11-20T06:58:11.473Z,3.40
2017-11-20T07:00:40.711Z,4.10
2017-11-20T07:03:09.979Z,3.20
2017-11-20T07:05:40.291Z,3.43
2017-11-20T07:08:10.379Z,4.50
2017-11-20T07:10:39.707Z,4.70
2017-11-20T07:13:09.011Z,4.93
2017-11-20T07:15:39.031Z,5.10
2017-11-20T07:18:08.372Z,5.17
2017-11-20T07:20:38.449Z,4.67
2017-11-20T07:23:07.695Z,4.80
2017-11-20T07:29:01.024Z,5.70
2017-11-20T07:31:30.254Z,5.40
2017-11-20T07:34:17.383Z,5.67
2017-11-20T07:37:04.267Z,4.30
2017-11-20T07:39:34.299Z,4.27
2017-11-20T07:42:03.527Z,5.20
2017-11-20T07:44:32.801Z,7.73
2017-11-20T07:47:02.822Z,5.60
2017-11-20T07:49:32.076Z,5.20
2017-11-20T07:52:01.340Z,4.77
2017-11-20T07:54:30.594Z,5.47
2017-11-20T07:56:59.858Z,5.37
2017-11-20T07:59:29.127Z,5.10
2017-11-20T08:01:58.508Z,5.07
2017-11-20T08:04:27.776Z,5.80
2017-11-20T08:06:57.028Z,5.83
2017-11-20T08:09:26.415Z,5.60
2017-11-20T08:11:56.425Z,5.20
2017-11-20T08:14:25.701Z,6.13
2017-11-20T08:16:55.970Z,5.50
2017-11-20T08:19:25.260Z,5.37
2017-11-20T08:21:54.769Z,7.00
2017-11-20T08:24:24.008Z,5.57
2017-11-20T08:26:53.266Z,6.17
2017-11-20T08:29:23.249Z,6.20
2017-11-20T08:31:52.498Z,6.13
2017-11-20T08:34:21.875Z,6.60
2017-11-20T08:36:51.181Z,5.50
2017-11-20T08:39:21.243Z,6.40
2017-11-20T08:41:50.532Z,6.80
2017-11-20T08:44:19.803Z,7.33
2017-11-20T08:46:49.934Z,7.70
2017-11-20T08:49:19.180Z,7.37
2017-11-20T08:51:48.471Z,7.00
2017-11-20T08:54:17.852Z,7.60
2017-11-20T08:56:47.263Z,7.50
2017-11-20T08:59:16.527Z,7.47
2017-11-20T09:01:45.831Z,7.03
2017-11-20T09:04:15.143Z,8.40
2017-11-20T09:06:44.505Z,8.33
2017-11-20T09:09:13.763Z,10.50
2017-11-20T09:11:43.083Z,8.80
2017-11-20T09:14:12.338Z,7.97
2017-11-20T09:16:42.047Z,8.17
2017-11-20T09:19:11.303Z,8.40
2017-11-20T09:21:40.584Z,7.90
2017-11-20T09:24:09.828Z,9.57
2017-11-20T09:26:39.093Z,9.00
2017-11-20T09:29:08.314Z,9.40
2017-11-20T09:31:37.587Z,8.93
2017-11-20T09:34:06.856Z,8.40
2017-11-20T09:36:36.086Z,9.67
2017-11-20T09:39:05.335Z,9.07
2017-11-20T09:41:34.603Z,8.63
2017-11-20T09:44:03.882Z,9.77
2017-11-20T09:46:33.121Z,9.40
2017-11-20T09:49:02.555Z,9.90
2017-11-20T09:51:31.869Z,9.90
2017-11-20T09:54:01.908Z,10.13
2017-11-20T09:56:31.315Z,10.37
2017-11-20T09:59:00.602Z,11.00
2017-11-20T10:01:30.653Z,9.03
2017-11-20T10:03:59.902Z,11.33
2017-11-20T10:06:29.202Z,10.20
2017-11-20T10:08:58.437Z,10.40
2017-11-20T10:11:27.706Z,12.20
2017-11-20T10:13:57.477Z,11.63
2017-11-20T10:16:26.825Z,9.00
2017-11-20T10:18:56.102Z,10.70
2017-11-20T10:21:25.333Z,11.80
2017-11-20T10:23:55.362Z,9.50
2017-11-20T10:26:24.896Z,10.90
2017-11-20T10:28:54.910Z,8.17
2017-11-20T10:31:24.311Z,10.40
2017-11-20T10:33:53.595Z,10.37
2017-11-20T10:36:23.604Z,9.63
2017-11-20T10:38:53.825Z,9.43
2017-11-20T10:41:23.055Z,9.20
2017-11-20T10:43:52.324Z,10.53
2017-11-20T10:46:21.574Z,11.47
2017-11-20T10:48:50.838Z,9.03
2017-11-20T10:51:20.852Z,9.83
2017-11-20T10:53:50.108Z,10.87
2017-11-20T10:56:19.361Z,10.20
2017-11-20T10:58:49.427Z,10.67
2017-11-20T11:01:18.659Z,10.03
2017-11-20T11:03:48.702Z,8.80
2017-11-20T11:06:18.687Z,8.87
2017-11-20T11:08:48.118Z,9.70
2017-11-20T11:11:18.135Z,8.67
2017-11-20T11:13:47.398Z,7.97
2017-11-20T11:16:16.835Z,9.23
2017-11-20T11:18:46.086Z,9.20
2017-11-20T11:21:15.431Z,8.43
2017-11-20T11:23:44.903Z,8.70
2017-11-20T11:26:14.245Z,8.53
2017-11-20T11:28:43.536Z,8.90
2017-11-20T11:31:13.675Z,9.57
2017-11-20T11:33:42.974Z,10.27
2017-11-20T11:36:16.468Z,7.30
2017-11-20T11:38:41.986Z,7.73
2017-11-20T11:41:13.707Z,8.80
2017-11-20T11:43:41.246Z,9.27
2017-11-20T11:46:10.491Z,8.20
2017-11-20T11:48:39.747Z,8.80
2017-11-20T11:51:09.103Z,7.50
2017-11-20T11:53:39.218Z,9.07
2017-11-20T11:56:08.531Z,8.10
2017-11-20T11:58:38.562Z,7.80
2017-11-20T12:01:07.791Z,6.27
2017-11-20T12:03:37.043Z,9.30
2017-11-20T12:06:07.164Z,9.27
2017-11-20T12:08:37.166Z,9.00
2017-11-20T12:11:06.438Z,7.13
2017-11-20T12:13:35.666Z,6.57
2017-11-20T12:16:04.954Z,8.07
2017-11-20T12:18:34.193Z,7.00
2017-11-20T12:21:03.472Z,6.17
2017-11-20T12:23:32.874Z,6.83
2017-11-20T12:26:02.132Z,7.90
2017-11-20T12:28:31.910Z,6.93
2017-11-20T12:31:01.915Z,7.30
2017-11-20T12:33:31.164Z,6.93
2017-11-20T12:36:00.427Z,7.00
2017-11-20T12:38:30.441Z,6.20
2017-11-20T12:40:59.671Z,7.47
2017-11-20T12:43:29.143Z,7.43
2017-11-20T12:45:59.148Z,6.50
2017-11-20T12:48:28.407Z,7.13
2017-11-20T12:50:57.663Z,5.97
2017-11-20T12:53:28.041Z,8.10
2017-11-20T12:55:57.308Z,7.00
2017-11-20T12:58:26.583Z,7.00
2017-11-20T13:00:55.861Z,7.10
2017-11-20T13:03:25.092Z,7.60
2017-11-20T13:05:54.343Z,6.27
2017-11-20T13:08:23.595Z,8.53
2017-11-20T13:10:52.881Z,6.10
2017-11-20T13:13:22.170Z,6.87
2017-11-20T13:15:51.452Z,5.87
2017-11-20T13:18:20.686Z,7.70
2017-11-20T13:20:49.946Z,6.17
2017-11-20T13:23:19.309Z,6.50
2017-11-20T13:25:50.041Z,7.07
2017-11-20T13:28:19.347Z,7.53
2017-11-20T13:30:49.346Z,6.77
2017-11-20T13:33:18.583Z,8.40
2017-11-20T13:35:47.898Z,7.07
2017-11-20T13:38:17.185Z,7.10
2017-11-20T13:40:47.189Z,7.77
2017-11-20T13:43:16.448Z,7.40
2017-11-20T13:45:45.706Z,8.03
2017-11-20T13:48:15.147Z,8.57
2017-11-20T13:50:44.491Z,8.20
2017-11-20T13:53:14.495Z,8.90
2017-11-20T13:55:43.766Z,9.37
2017-11-20T13:58:13.013Z,9.50
2017-11-20T14:00:43.039Z,9.37
2017-11-20T14:03:12.311Z,9.30
2017-11-20T14:05:41.562Z,8.57
2017-11-20T14:08:10.841Z,8.03
2017-11-20T14:10:40.871Z,6.90
2017-11-20T14:13:10.131Z,9.60
2017-11-20T14:15:39.547Z,9.53
2017-11-20T14:18:08.839Z,9.93
2017-11-20T14:20:38.147Z,8.57
2017-11-20T14:23:07.665Z,10.53
2017-11-20T14:25:37.694Z,8.23
2017-11-20T14:28:07.086Z,8.90
2017-11-20T14:30:36.396Z,8.40
2017-11-20T14:33:06.396Z,8.90
2017-11-20T14:35:35.815Z,7.80
2017-11-20T14:38:05.838Z,9.80
2017-11-20T14:40:35.089Z,9.43
2017-11-20T14:43:04.349Z,7.40
2017-11-20T14:45:33.603Z,9.77
2017-11-20T14:48:25.448Z,10.40
2017-11-20T14:50:57.087Z,9.00
2017-11-20T14:53:28.159Z,10.13
2017-11-20T14:55:58.183Z,11.47
2017-11-20T14:58:27.446Z,9.87
2017-11-20T15:00:57.725Z,11.17
2017-11-20T15:03:27.015Z,11.00
2017-11-20T15:05:57.022Z,10.13
2017-11-20T15:08:26.315Z,10.03
2017-11-20T15:10:55.573Z,10.83
2017-11-20T15:13:24.896Z,11.47
2017-11-20T15:15:54.162Z,11.27
2017-11-20T15:18:23.416Z,10.80
2017-11-20T15:20:52.651Z,12.30
2017-11-20T15:23:22.107Z,11.60
2017-11-20T15:25:51.447Z,10.60
2017-11-20T15:28:20.690Z,11.57
2017-11-20T15:30:49.955Z,12.10
2017-11-20T15:33:19.222Z,12.30
2017-11-20T15:35:48.511Z,14.03
2017-11-20T15:38:17.759Z,11.77
2017-11-20T15:40:47.784Z,12.57
2017-11-20T15:43:17.040Z,11.10
2017-11-20T15:45:46.308Z,12.60
2017-11-20T15:48:15.586Z,11.00
2017-11-20T15:50:45.627Z,11.13
2017-11-20T15:53:14.923Z,12.50
2017-11-20T15:55:44.286Z,13.47
2017-11-20T15:58:14.282Z,12.53
2017-11-20T16:00:43.518Z,13.77
2017-11-20T16:03:13.542Z,11.57
2017-11-20T16:05:42.797Z,12.10
2017-11-20T16:08:12.060Z,12.90
2017-11-20T16:10:41.599Z,10.73
2017-11-20T16:13:10.867Z,10.83
2017-11-20T16:15:40.116Z,12.30
2017-11-20T16:18:09.701Z,10.90
2017-11-20T16:20:38.959Z,10.77
2017-11-20T16:23:08.968Z,10.97
2017-11-20T16:25:38.364Z,11.03
2017-11-20T16:28:07.804Z,12.13
2017-11-20T16:30:37.117Z,11.03
2017-11-20T16:33:06.478Z,62.53
2017-11-20T16:35:36.511Z,15.13
2017-11-20T16:38:05.791Z,18.40
2017-11-20T16:40:36.543Z,15.40
2017-11-20T16:43:05.990Z,13.03
2017-11-20T16:45:35.239Z,10.60
2017-11-20T16:48:04.809Z,10.80
2017-11-20T16:50:34.097Z,12.37
2017-11-20T16:53:03.343Z,14.10
2017-11-20T16:55:32.669Z,10.77
2017-11-20T16:58:20.412Z,9.73
2017-11-20T17:00:49.686Z,12.33
2017-11-20T17:03:35.483Z,9.53
2017-11-20T17:06:04.910Z,10.50
2017-11-20T17:08:34.138Z,9.53
2017-11-20T17:11:03.423Z,11.60
2017-11-20T17:13:32.804Z,9.97
2017-11-20T17:16:02.056Z,10.23
2017-11-20T17:18:31.567Z,10.43
2017-11-20T17:21:00.905Z,8.10
2017-11-20T17:23:31.013Z,9.60
2017-11-20T17:26:00.243Z,11.10
2017-11-20T17:28:29.522Z,10.50
2017-11-20T17:30:58.843Z,9.03
2017-11-20T17:33:28.322Z,9.20
2017-11-20T17:35:58.355Z,10.57
2017-11-20T17:38:27.711Z,10.97
2017-11-20T17:40:56.980Z,11.00
2017-11-20T17:43:26.394Z,10.50
2017-11-20T17:45:55.689Z,11.47
2017-11-20T17:48:25.715Z,12.00
2017-11-20T17:50:55.122Z,11.87
2017-11-20T17:53:25.190Z,10.50
2017-11-20T17:55:54.478Z,10.77
2017-11-20T17:58:23.969Z,10.60
2017-11-20T18:00:53.178Z,15.17
2017-11-20T18:03:22.638Z,34.97
2017-11-20T18:05:52.655Z,28.17
2017-11-20T18:08:21.926Z,18.33
2017-11-20T18:10:51.181Z,13.57
2017-11-20T18:13:20.468Z,12.97
2017-11-20T18:15:50.509Z,11.07
2017-11-20T18:18:19.770Z,12.70
2017-11-20T18:20:49.057Z,14.10
2017-11-20T18:23:18.296Z,10.60
2017-11-20T18:25:47.680Z,9.17
2017-11-20T18:28:16.974Z,11.10
2017-11-20T18:30:46.237Z,11.10
2017-11-20T18:33:15.486Z,11.17
2017-11-20T18:35:44.744Z,9.60
2017-11-20T18:38:13.992Z,10.27
2017-11-20T18:40:43.238Z,10.20
2017-11-20T18:43:12.712Z,11.33
2017-11-20T18:45:42.703Z,9.77
2017-11-20T18:48:11.948Z,10.70
2017-11-20T18:50:41.221Z,10.70
2017-11-20T18:53:11.228Z,8.30
2017-11-20T18:55:40.660Z,8.60
2017-11-20T18:58:09.920Z,8.50
2017-11-20T19:00:56.868Z,10.30
2017-11-20T19:03:27.814Z,16.97
2017-11-20T19:06:14.804Z,9.47
2017-11-20T19:09:01.732Z,9.40
2017-11-20T19:11:31.131Z,8.50
2017-11-20T19:14:01.162Z,9.47
2017-11-20T19:16:30.439Z,10.67
2017-11-20T19:18:59.674Z,9.50
2017-11-20T19:21:28.923Z,9.37
2017-11-20T19:23:58.191Z,16.73
2017-11-20T19:26:28.171Z,9.80
2017-11-20T19:28:57.546Z,7.30
2017-11-20T19:31:26.889Z,7.30
2017-11-20T19:33:57.671Z,16.57
2017-11-20T19:36:26.913Z,9.47
2017-11-20T19:38:56.321Z,12.10
2017-11-20T19:41:27.032Z,16.13
2017-11-20T19:43:56.403Z,13.50
2017-11-20T19:46:25.648Z,10.53
2017-11-20T19:48:55.774Z,10.20
2017-11-20T19:51:25.829Z,7.87
2017-11-20T19:53:55.079Z,8.37
2017-11-20T19:56:24.473Z,10.50
2017-11-20T19:58:53.751Z,9.23
2017-11-20T20:01:23.100Z,8.00
2017-11-20T20:03:53.134Z,7.00
2017-11-20T20:06:22.381Z,14.43
2017-11-20T20:08:51.648Z,10.60
2017-11-20T20:11:20.908Z,6.77
2017-11-20T20:13:50.175Z,6.70
2017-11-20T20:16:37.336Z,8.67
2017-11-20T20:19:07.386Z,6.80
2017-11-20T20:21:36.639Z,7.57
2017-11-20T20:24:05.875Z,7.70
2017-11-20T20:26:35.175Z,7.17
2017-11-20T20:29:04.403Z,8.33
2017-11-20T20:31:33.676Z,6.87
2017-11-20T20:34:02.939Z,8.07
2017-11-20T20:36:32.195Z,8.87
2017-11-20T20:39:01.483Z,7.40
2017-11-20T20:41:30.734Z,7.77
2017-11-20T20:44:00.015Z,7.30
2017-11-20T20:46:29.312Z,6.60
2017-11-20T20:48:58.690Z,7.37
2017-11-20T20:51:27.944Z,8.60
2017-11-20T20:53:57.200Z,7.40
2017-11-20T20:56:26.450Z,8.60
2017-11-20T20:58:55.755Z,8.70
2017-11-20T21:01:25.167Z,8.10
2017-11-20T21:03:54.422Z,7.50
2017-11-20T21:06:23.699Z,8.20
2017-11-20T21:08:53.055Z,8.03
2017-11-20T21:11:27.796Z,7.07
2017-11-20T21:13:57.201Z,7.70
2017-11-20T21:16:26.442Z,8.57
2017-11-20T21:18:55.730Z,9.23
2017-11-20T21:21:24.990Z,9.10
2017-11-20T21:23:54.411Z,8.27
2017-11-20T21:26:24.448Z,9.13
2017-11-20T21:28:53.730Z,7.37
2017-11-20T21:31:22.967Z,8.23
2017-11-20T21:33:52.207Z,8.77
2017-11-20T21:36:21.496Z,8.07
2017-11-20T21:38:50.739Z,8.37
2017-11-20T21:41:20.137Z,8.53
2017-11-20T21:43:49.399Z,9.10
2017-11-20T21:46:18.659Z,8.03
2017-11-20T21:48:47.892Z,7.23
2017-11-20T21:51:17.152Z,7.70
2017-11-20T21:53:47.210Z,8.17
2017-11-20T21:56:16.552Z,7.83
2017-11-20T21:58:45.830Z,7.10
2017-11-20T22:01:15.382Z,6.97
2017-11-20T22:03:45.397Z,7.60
2017-11-20T22:06:14.678Z,7.80
2017-11-20T22:08:43.985Z,6.67
2017-11-20T22:11:13.278Z,7.43
2017-11-20T22:13:42.598Z,7.30
2017-11-20T22:16:11.851Z,6.60
2017-11-20T22:18:41.273Z,8.27
2017-11-20T22:21:11.343Z,8.17
2017-11-20T22:23:40.642Z,7.20
2017-11-20T22:26:09.857Z,5.70
2017-11-20T22:28:39.096Z,6.30
2017-11-20T22:31:08.370Z,5.13
2017-11-20T22:33:37.601Z,6.33
2017-11-20T22:36:06.887Z,5.87
2017-11-20T22:38:36.126Z,4.97
2017-11-20T22:41:05.517Z,4.00
2017-11-20T22:43:35.556Z,4.40
2017-11-20T22:46:05.542Z,4.47
2017-11-20T22:48:34.809Z,4.40
2017-11-20T22:51:04.063Z,5.07
2017-11-20T22:53:34.054Z,4.40
2017-11-20T22:56:03.545Z,3.90
2017-11-20T22:58:32.797Z,3.30
2017-11-20T23:01:02.786Z,3.00
2017-11-20T23:03:32.048Z,3.20
2017-11-20T23:06:01.284Z,3.70
2017-11-20T23:08:30.668Z,3.30
2017-11-20T23:10:59.910Z,3.00
2017-11-20T23:13:29.915Z,3.17
2017-11-20T23:15:59.178Z,2.63
2017-11-20T23:18:28.408Z,3.67
2017-11-20T23:20:57.703Z,3.47
2017-11-20T23:23:26.951Z,3.00
2017-11-20T23:25:56.447Z,3.00
2017-11-20T23:28:25.670Z,3.83
2017-11-20T23:30:55.135Z,2.70
2017-11-20T23:33:25.175Z,2.07
2017-11-20T23:35:54.428Z,2.30
2017-11-20T23:38:23.681Z,2.60
2017-11-20T23:40:52.935Z,2.70
2017-11-20T23:43:22.168Z,2.57
2017-11-20T23:45:51.401Z,2.00
2017-11-20T23:48:20.694Z,2.87
2017-11-20T23:50:49.927Z,2.13
2017-11-20T23:53:34.829Z,1.80
2017-11-20T23:56:04.824Z,2.63
2017-11-20T23:58:34.252Z,2.30
